Talbot, Indiana
Current Conditions -  °F | °C
As of 7:15 AM on Monday 26 Jan 2015 (Local Time) from KDNV Reporting Station
Overcast Overcast  
Wind Chill: 18°   Ceiling: 1400
Heat Index: 24°   Visibility: 10mi
Dew Point: 20°   Wind: 5mph
Humidity: 85%   Direction: 350°N
Pressure: 29.93"   Gusts: NA
Location:  40.51°N, 87.45°W
Report Text: KDNV 261215Z AUTO 35004KT 10SM OVC014 M05/M07 A2993 RMK AO2 T10471069
Loading
Personal Weather Stations






























Interactive Weather Map New forecast layout! Learn more

10-Day Weather Forecast

Advertisements
Track Severe Weather on mobile